createdAt,value
2022-10-02T00:01:48.291Z,13.30
2022-10-02T00:04:23.824Z,13.31
2022-10-02T00:06:54.278Z,13.23
2022-10-02T00:09:28.934Z,13.24
2022-10-02T00:11:59.681Z,13.25
2022-10-02T00:14:34.895Z,13.29
2022-10-02T00:17:04.175Z,13.32
2022-10-02T00:19:33.738Z,13.43
2022-10-02T00:22:23.317Z,13.55
2022-10-02T00:24:58.129Z,13.66
2022-10-02T00:27:37.772Z,13.68
2022-10-02T00:30:07.625Z,13.69
2022-10-02T00:32:41.975Z,13.72
2022-10-02T00:35:37.247Z,13.68
2022-10-02T00:38:20.827Z,13.67
2022-10-02T00:41:07.971Z,13.63
2022-10-02T00:43:47.736Z,13.66
2022-10-02T00:46:40.019Z,13.77
2022-10-02T00:49:30.266Z,13.84
2022-10-02T00:52:12.393Z,13.84
2022-10-02T00:55:14.118Z,13.89
2022-10-02T00:57:58.579Z,13.85
2022-10-02T01:00:27.629Z,13.77
2022-10-02T01:03:11.122Z,13.84
2022-10-02T01:05:40.266Z,13.90
2022-10-02T01:08:09.608Z,13.88
2022-10-02T01:10:39.268Z,13.92
2022-10-02T01:13:08.108Z,13.90
2022-10-02T01:15:38.516Z,13.89
2022-10-02T01:18:08.022Z,13.86
2022-10-02T01:20:43.687Z,13.86
2022-10-02T01:23:25.984Z,13.85
2022-10-02T01:25:55.572Z,13.84
2022-10-02T01:28:24.109Z,13.84
2022-10-02T01:30:56.061Z,13.83
2022-10-02T01:33:24.223Z,13.87
2022-10-02T01:35:55.004Z,13.87
2022-10-02T01:38:24.876Z,13.95
2022-10-02T01:40:53.124Z,13.96
2022-10-02T01:43:25.540Z,13.96
2022-10-02T01:46:02.536Z,13.81
2022-10-02T01:48:44.144Z,13.82
2022-10-02T01:51:25.754Z,13.90
2022-10-02T01:54:05.520Z,13.90
2022-10-02T01:56:43.977Z,13.97
2022-10-02T01:59:21.435Z,14.03
2022-10-02T02:01:59.934Z,14.08
2022-10-02T02:04:33.446Z,14.05
2022-10-02T02:07:09.105Z,14.00
2022-10-02T02:09:42.089Z,14.01
2022-10-02T02:12:16.359Z,14.04
2022-10-02T02:14:53.017Z,14.02
2022-10-02T02:17:27.700Z,13.94
2022-10-02T02:20:03.326Z,13.86
2022-10-02T02:22:34.373Z,13.83
2022-10-02T02:25:09.024Z,13.82
2022-10-02T02:27:41.901Z,13.86
2022-10-02T02:30:14.589Z,13.86
2022-10-02T02:32:47.666Z,13.83
2022-10-02T02:35:19.542Z,13.85
2022-10-02T02:37:51.566Z,13.76
2022-10-02T02:40:23.948Z,13.69
2022-10-02T02:42:57.651Z,13.61
2022-10-02T02:45:31.170Z,13.61
2022-10-02T02:48:04.261Z,13.67
2022-10-02T02:50:35.582Z,13.72
2022-10-02T02:53:09.759Z,13.72
2022-10-02T02:55:45.105Z,13.67
2022-10-02T02:58:18.444Z,13.58
2022-10-02T03:00:48.214Z,13.58
2022-10-02T03:03:16.179Z,13.65
2022-10-02T03:05:49.017Z,13.71
2022-10-02T03:08:23.490Z,13.72
2022-10-02T03:11:05.413Z,13.58
2022-10-02T03:13:45.380Z,13.64
2022-10-02T03:16:27.099Z,13.63
2022-10-02T03:19:15.480Z,13.61
2022-10-02T03:21:54.285Z,13.61
2022-10-02T03:24:28.242Z,13.57
2022-10-02T03:27:04.042Z,13.71
2022-10-02T03:29:38.102Z,13.74
2022-10-02T03:32:10.285Z,13.79
2022-10-02T03:34:39.520Z,13.78
2022-10-02T03:37:08.466Z,13.85
2022-10-02T03:39:36.572Z,13.84
2022-10-02T03:42:04.793Z,13.86
2022-10-02T03:44:32.627Z,13.89
2022-10-02T03:47:00.586Z,13.87
2022-10-02T03:49:29.991Z,13.84
2022-10-02T03:51:57.839Z,13.89
2022-10-02T03:54:25.833Z,13.83
2022-10-02T03:56:56.633Z,13.84
2022-10-02T03:59:42.245Z,13.83
2022-10-02T04:02:20.289Z,13.74
2022-10-02T04:04:56.857Z,13.67
2022-10-02T04:07:30.639Z,13.53
2022-10-02T04:10:11.377Z,13.51
2022-10-02T04:12:42.804Z,13.49
2022-10-02T04:15:21.791Z,13.44
2022-10-02T04:17:58.198Z,13.40
2022-10-02T04:20:34.416Z,13.38
2022-10-02T04:23:11.823Z,13.36
2022-10-02T04:25:46.380Z,13.31
2022-10-02T04:28:17.980Z,13.25
2022-10-02T04:30:45.926Z,13.25
2022-10-02T04:33:15.147Z,13.25
2022-10-02T04:35:52.135Z,13.13
2022-10-02T04:38:33.613Z,13.15
2022-10-02T04:41:21.019Z,13.14
2022-10-02T04:44:03.264Z,13.11
2022-10-02T04:46:57.589Z,13.10
2022-10-02T04:49:43.166Z,13.05
2022-10-02T04:52:28.524Z,13.06
2022-10-02T04:55:18.812Z,13.07
2022-10-02T04:58:13.694Z,13.05
2022-10-02T05:00:49.238Z,13.03
2022-10-02T05:03:33.357Z,13.07
2022-10-02T05:06:30.390Z,13.12
2022-10-02T05:09:08.712Z,13.07
2022-10-02T05:12:03.536Z,13.05
2022-10-02T05:15:03.752Z,13.10
2022-10-02T05:17:45.912Z,13.16
2022-10-02T05:20:30.092Z,13.20
2022-10-02T05:23:11.539Z,13.25
2022-10-02T05:26:03.549Z,13.24
2022-10-02T05:28:48.717Z,13.28
2022-10-02T05:31:30.543Z,13.23
2022-10-02T05:34:11.491Z,13.27
2022-10-02T05:36:56.631Z,13.30
2022-10-02T05:39:29.343Z,13.28
2022-10-02T05:42:08.095Z,13.22
2022-10-02T05:44:40.256Z,13.19
2022-10-02T05:47:16.223Z,13.17
2022-10-02T05:49:51.951Z,13.22
2022-10-02T05:52:25.114Z,13.30
2022-10-02T05:54:57.800Z,13.43
2022-10-02T05:57:34.515Z,13.52
2022-10-02T06:00:10.627Z,13.61
2022-10-02T06:02:47.123Z,13.58
2022-10-02T06:05:19.254Z,13.52
2022-10-02T06:07:51.145Z,13.44
2022-10-02T06:10:23.735Z,13.49
2022-10-02T06:12:57.336Z,13.47
2022-10-02T06:15:32.509Z,13.44
2022-10-02T06:18:04.391Z,13.46
2022-10-02T06:20:37.796Z,13.54
2022-10-02T06:23:11.777Z,13.51
2022-10-02T06:25:44.307Z,13.59
2022-10-02T06:28:18.831Z,13.59
2022-10-02T06:30:50.814Z,13.61
2022-10-02T06:33:24.373Z,13.69
2022-10-02T06:36:18.995Z,13.69
2022-10-02T06:39:03.277Z,13.68
2022-10-02T06:41:41.415Z,13.74
2022-10-02T06:44:19.040Z,13.77
2022-10-02T06:47:00.375Z,13.94
2022-10-02T06:49:40.713Z,13.97
2022-10-02T06:52:21.062Z,14.12
2022-10-02T06:55:08.697Z,14.16
2022-10-02T06:57:50.191Z,14.24
2022-10-02T07:00:21.461Z,14.31
2022-10-02T07:03:19.915Z,14.32
2022-10-02T07:06:11.697Z,14.37
2022-10-02T07:08:54.025Z,14.41
2022-10-02T07:11:28.571Z,14.53
2022-10-02T07:14:23.471Z,14.67
2022-10-02T07:17:06.401Z,14.73
2022-10-02T07:19:57.951Z,14.72
2022-10-02T07:22:44.873Z,14.86
2022-10-02T07:25:32.442Z,15.15
2022-10-02T07:28:10.718Z,15.37
2022-10-02T07:30:48.838Z,15.52
2022-10-02T07:33:30.866Z,15.51
2022-10-02T07:36:06.444Z,15.43
2022-10-02T07:38:57.093Z,15.41
2022-10-02T07:41:56.780Z,15.25
2022-10-02T07:44:38.888Z,14.98
2022-10-02T07:47:19.779Z,14.75
2022-10-02T07:49:55.940Z,14.71
2022-10-02T07:52:32.701Z,14.79
2022-10-02T07:55:15.499Z,14.82
2022-10-02T07:57:52.382Z,14.82
2022-10-02T08:00:24.209Z,14.88
2022-10-02T08:02:57.850Z,14.98
2022-10-02T08:05:31.051Z,15.23
2022-10-02T08:08:03.492Z,15.36
2022-10-02T08:10:37.970Z,15.40
2022-10-02T08:13:14.741Z,15.55
2022-10-02T08:15:45.658Z,15.59
2022-10-02T08:18:34.214Z,15.77
2022-10-02T08:21:06.756Z,16.00
2022-10-02T08:23:40.679Z,16.26
2022-10-02T08:26:15.698Z,16.80
2022-10-02T08:28:48.632Z,16.94
2022-10-02T08:31:16.887Z,16.66
2022-10-02T08:33:44.779Z,16.50
2022-10-02T08:36:40.191Z,16.19
2022-10-02T08:39:21.241Z,15.80
2022-10-02T08:42:16.017Z,15.57
2022-10-02T08:45:16.208Z,15.50
2022-10-02T08:48:22.677Z,15.47
2022-10-02T08:51:20.782Z,15.37
2022-10-02T08:54:36.994Z,15.27
2022-10-02T08:57:52.299Z,15.17
2022-10-02T09:00:26.290Z,15.25
2022-10-02T09:03:31.653Z,15.25
2022-10-02T09:06:51.045Z,15.35
2022-10-02T09:10:01.363Z,15.36
2022-10-02T09:12:58.437Z,15.83
2022-10-02T09:15:44.546Z,16.08
2022-10-02T09:18:29.135Z,16.23
2022-10-02T09:21:15.620Z,16.41
2022-10-02T09:24:26.035Z,16.55
2022-10-02T09:27:22.309Z,16.60
2022-10-02T09:30:39.667Z,16.51
2022-10-02T09:33:54.974Z,16.43
2022-10-02T09:36:53.974Z,16.37
2022-10-02T09:39:44.218Z,16.31
2022-10-02T09:42:35.949Z,16.25
2022-10-02T09:45:36.588Z,16.35
2022-10-02T09:48:34.885Z,16.73
2022-10-02T09:51:42.722Z,16.94
2022-10-02T09:54:39.515Z,16.94
2022-10-02T09:57:43.818Z,16.72
2022-10-02T10:00:21.787Z,16.75
2022-10-02T10:03:19.748Z,16.37
2022-10-02T10:06:24.280Z,16.45
2022-10-02T10:09:15.220Z,16.42
2022-10-02T10:12:18.179Z,16.37
2022-10-02T10:15:24.257Z,16.33
2022-10-02T10:18:27.841Z,16.53
2022-10-02T10:21:34.309Z,16.43
2022-10-02T10:24:35.429Z,16.64
2022-10-02T10:27:34.141Z,16.58
2022-10-02T10:30:37.251Z,16.69
2022-10-02T10:34:04.972Z,16.76
2022-10-02T10:37:16.879Z,16.74
2022-10-02T10:40:21.152Z,16.78
2022-10-02T10:43:23.235Z,16.75
2022-10-02T10:46:11.537Z,16.75
2022-10-02T10:49:00.547Z,16.96
2022-10-02T10:51:33.874Z,17.05
2022-10-02T10:54:40.782Z,17.29
2022-10-02T10:57:22.295Z,17.35
2022-10-02T11:00:15.845Z,17.35
2022-10-02T11:03:23.511Z,17.48
2022-10-02T11:06:12.435Z,17.79
2022-10-02T11:09:26.534Z,17.80
2022-10-02T11:12:25.027Z,18.24
2022-10-02T11:15:06.654Z,18.27
2022-10-02T11:18:00.959Z,18.32
2022-10-02T11:20:47.545Z,18.71
2022-10-02T11:23:41.935Z,18.83
2022-10-02T11:26:37.753Z,18.97
2022-10-02T11:29:38.798Z,18.95
2022-10-02T11:32:33.836Z,19.13
2022-10-02T11:35:23.535Z,19.00
2022-10-02T11:38:23.520Z,19.03
2022-10-02T11:41:15.380Z,18.95
2022-10-02T11:44:04.897Z,18.62
2022-10-02T11:47:07.873Z,18.72
2022-10-02T11:49:53.378Z,18.43
2022-10-02T11:52:48.109Z,18.18
2022-10-02T11:55:28.716Z,18.06
2022-10-02T11:58:09.342Z,18.06
2022-10-02T12:01:05.893Z,18.14
2022-10-02T12:03:46.860Z,18.19
2022-10-02T12:06:29.781Z,18.11
2022-10-02T12:09:07.562Z,17.90
2022-10-02T12:11:46.452Z,17.84
2022-10-02T12:14:30.706Z,17.94
2022-10-02T12:17:10.120Z,17.82
2022-10-02T12:20:13.509Z,17.65
2022-10-02T12:23:06.641Z,17.66
2022-10-02T12:25:59.154Z,17.89
2022-10-02T12:28:38.463Z,18.27
2022-10-02T12:31:16.077Z,18.34
2022-10-02T12:33:56.482Z,18.24
2022-10-02T12:36:35.301Z,18.19
2022-10-02T12:39:17.699Z,18.15
2022-10-02T12:42:13.145Z,18.34
2022-10-02T12:45:11.825Z,18.26
2022-10-02T12:47:56.953Z,18.60
2022-10-02T12:50:47.061Z,18.73
2022-10-02T12:53:49.993Z,18.63
2022-10-02T12:56:45.785Z,18.85
2022-10-02T12:59:22.281Z,19.00
2022-10-02T13:02:33.057Z,18.95
2022-10-02T13:05:46.785Z,18.67
2022-10-02T13:08:42.644Z,18.33
2022-10-02T13:11:16.239Z,18.03
2022-10-02T13:14:04.879Z,17.91
2022-10-02T13:16:53.115Z,17.71
2022-10-02T13:19:32.857Z,17.32
2022-10-02T13:22:09.438Z,17.18
2022-10-02T13:24:53.411Z,17.09
2022-10-02T13:27:33.862Z,17.03
2022-10-02T13:30:14.161Z,17.05
2022-10-02T13:32:58.086Z,17.11
2022-10-02T13:35:44.433Z,17.02
2022-10-02T13:38:25.838Z,16.96
2022-10-02T13:41:08.704Z,16.93
2022-10-02T13:43:58.247Z,16.95
2022-10-02T13:46:40.021Z,17.04
2022-10-02T13:49:18.164Z,17.12
2022-10-02T13:51:54.764Z,17.08
2022-10-02T13:54:39.508Z,17.15
2022-10-02T13:57:22.134Z,17.24
2022-10-02T14:00:09.374Z,17.27
2022-10-02T14:03:02.541Z,17.25
2022-10-02T14:05:42.038Z,17.35
2022-10-02T14:08:33.725Z,17.29
2022-10-02T14:11:15.008Z,17.19
2022-10-02T14:14:03.214Z,17.14
2022-10-02T14:16:44.438Z,17.11
2022-10-02T14:19:38.489Z,17.11
2022-10-02T14:22:27.295Z,17.18
2022-10-02T14:25:22.774Z,17.22
2022-10-02T14:28:17.061Z,17.07
2022-10-02T14:31:06.447Z,17.11
2022-10-02T14:33:54.042Z,17.16
2022-10-02T14:36:28.920Z,17.03
2022-10-02T14:39:11.836Z,17.08
2022-10-02T14:41:57.419Z,17.09
2022-10-02T14:44:56.982Z,16.99
2022-10-02T14:47:42.496Z,17.00
2022-10-02T14:50:38.647Z,17.08
2022-10-02T14:53:42.091Z,17.15
2022-10-02T14:56:30.921Z,17.15
2022-10-02T14:59:13.875Z,17.10
2022-10-02T15:01:47.208Z,17.03
2022-10-02T15:04:31.774Z,17.10
2022-10-02T15:07:13.123Z,17.25
2022-10-02T15:09:56.070Z,17.32
2022-10-02T15:12:28.130Z,17.46
2022-10-02T15:15:07.595Z,17.56
2022-10-02T15:17:55.905Z,17.40
2022-10-02T15:20:31.759Z,17.44
2022-10-02T15:23:01.886Z,17.51
2022-10-02T15:25:52.351Z,17.54
2022-10-02T15:28:42.850Z,17.60
2022-10-02T15:31:21.561Z,17.58
2022-10-02T15:34:02.028Z,17.52
2022-10-02T15:36:51.854Z,17.50
2022-10-02T15:39:50.378Z,17.29
2022-10-02T15:42:27.587Z,17.16
2022-10-02T15:45:13.701Z,17.16
2022-10-02T15:48:10.112Z,17.20
2022-10-02T15:50:48.317Z,17.08
2022-10-02T15:53:41.940Z,17.08
2022-10-02T15:56:30.590Z,16.89
2022-10-02T15:59:13.500Z,16.86
2022-10-02T16:01:53.885Z,16.84
2022-10-02T16:04:30.921Z,16.80
2022-10-02T16:07:26.772Z,16.76
2022-10-02T16:10:08.670Z,16.57
2022-10-02T16:12:54.203Z,16.34
2022-10-02T16:15:26.599Z,16.22
2022-10-02T16:18:13.955Z,16.19
2022-10-02T16:21:13.811Z,16.19
2022-10-02T16:23:55.462Z,16.09
2022-10-02T16:26:36.675Z,16.03
2022-10-02T16:29:24.431Z,15.98
2022-10-02T16:32:05.764Z,15.92
2022-10-02T16:34:43.557Z,15.88
2022-10-02T16:37:24.937Z,15.84
2022-10-02T16:40:00.588Z,15.77
2022-10-02T16:42:41.955Z,15.77
2022-10-02T16:45:28.490Z,15.69
2022-10-02T16:48:06.368Z,15.69
2022-10-02T16:50:46.773Z,15.61
2022-10-02T16:53:24.581Z,15.60
2022-10-02T16:55:59.981Z,15.60
2022-10-02T16:58:32.713Z,15.51
2022-10-02T17:01:05.321Z,15.50
2022-10-02T17:03:38.802Z,15.45
2022-10-02T17:06:13.817Z,15.46
2022-10-02T17:08:46.884Z,15.39
2022-10-02T17:11:23.884Z,15.37
2022-10-02T17:14:11.207Z,15.22
2022-10-02T17:16:46.345Z,15.26
2022-10-02T17:19:26.550Z,15.23
2022-10-02T17:22:00.206Z,15.28
2022-10-02T17:24:43.739Z,15.21
2022-10-02T17:27:18.376Z,15.19
2022-10-02T17:29:57.176Z,15.12
2022-10-02T17:32:36.716Z,15.09
2022-10-02T17:35:16.029Z,15.03
2022-10-02T17:38:06.288Z,15.06
2022-10-02T17:40:41.698Z,15.04
2022-10-02T17:43:20.581Z,15.01
2022-10-02T17:46:03.254Z,15.03
2022-10-02T17:48:43.559Z,15.05
2022-10-02T17:51:52.271Z,14.97
2022-10-02T17:55:07.845Z,14.97
2022-10-02T17:57:48.374Z,14.96
2022-10-02T18:00:22.077Z,14.94
2022-10-02T18:03:11.039Z,14.95
2022-10-02T18:05:50.927Z,14.91
2022-10-02T18:08:43.009Z,14.91
2022-10-02T18:11:29.490Z,14.82
2022-10-02T18:14:10.530Z,14.87
2022-10-02T18:16:51.907Z,14.89
2022-10-02T18:19:29.170Z,14.89
2022-10-02T18:22:12.095Z,14.86
2022-10-02T18:25:04.031Z,14.82
2022-10-02T18:27:53.735Z,14.78
2022-10-02T18:30:23.268Z,14.74
2022-10-02T18:33:26.895Z,14.77
2022-10-02T18:36:12.775Z,14.72
2022-10-02T18:38:56.231Z,14.66
2022-10-02T18:41:48.178Z,14.71
2022-10-02T18:44:33.656Z,14.68
2022-10-02T18:47:12.323Z,14.66
2022-10-02T18:49:56.168Z,14.66
2022-10-02T18:52:43.925Z,14.63
2022-10-02T18:55:50.710Z,14.61
2022-10-02T18:58:33.529Z,14.58
2022-10-02T19:01:35.354Z,14.55
2022-10-02T19:04:23.201Z,14.52
2022-10-02T19:06:58.114Z,14.49
2022-10-02T19:09:29.252Z,14.46
2022-10-02T19:11:58.855Z,14.52
2022-10-02T19:14:36.944Z,14.58
2022-10-02T19:17:08.829Z,14.61
2022-10-02T19:19:37.002Z,14.65
2022-10-02T19:22:16.296Z,14.66
2022-10-02T19:24:48.703Z,14.64
2022-10-02T19:27:24.152Z,14.59
2022-10-02T19:29:55.866Z,14.69
2022-10-02T19:32:27.854Z,14.72
2022-10-02T19:35:06.063Z,14.82
2022-10-02T19:37:39.592Z,14.81
2022-10-02T19:40:17.301Z,14.79
2022-10-02T19:42:51.818Z,14.70
2022-10-02T19:45:26.673Z,14.64
2022-10-02T19:47:59.878Z,14.59
2022-10-02T19:50:43.316Z,14.59
2022-10-02T19:53:24.120Z,14.52
2022-10-02T19:55:56.808Z,14.51
2022-10-02T19:58:30.855Z,14.44
2022-10-02T20:00:59.351Z,14.40
2022-10-02T20:03:28.082Z,14.35
2022-10-02T20:06:00.955Z,14.36
2022-10-02T20:08:32.906Z,14.32
2022-10-02T20:11:06.906Z,14.29
2022-10-02T20:13:39.899Z,14.29
2022-10-02T20:16:33.897Z,14.25
2022-10-02T20:19:02.223Z,14.20
2022-10-02T20:21:39.086Z,14.20
2022-10-02T20:24:15.191Z,14.17
2022-10-02T20:26:47.686Z,14.17
2022-10-02T20:29:22.197Z,14.17
2022-10-02T20:31:54.209Z,14.16
2022-10-02T20:34:28.385Z,14.19
2022-10-02T20:37:01.373Z,14.13
2022-10-02T20:39:35.000Z,14.13
2022-10-02T20:42:10.338Z,14.12
2022-10-02T20:44:39.233Z,14.12
2022-10-02T20:47:32.000Z,14.12
2022-10-02T20:50:22.300Z,14.11
2022-10-02T20:53:21.836Z,14.10
2022-10-02T20:55:56.122Z,14.07
2022-10-02T20:58:46.318Z,14.05
2022-10-02T21:01:21.212Z,14.07
2022-10-02T21:04:26.555Z,14.04
2022-10-02T21:07:20.117Z,14.06
2022-10-02T21:10:23.617Z,14.03
2022-10-02T21:13:26.587Z,13.98
2022-10-02T21:16:22.576Z,13.95
2022-10-02T21:19:35.934Z,13.94
2022-10-02T21:22:34.086Z,13.90
2022-10-02T21:25:47.217Z,13.88
2022-10-02T21:28:50.387Z,13.82
2022-10-02T21:31:50.660Z,13.83
2022-10-02T21:34:34.885Z,13.83
2022-10-02T21:37:14.361Z,13.80
2022-10-02T21:40:22.610Z,13.81
2022-10-02T21:43:31.667Z,13.77
2022-10-02T21:46:42.613Z,13.79
2022-10-02T21:49:58.127Z,13.72
2022-10-02T21:52:59.058Z,13.75
2022-10-02T21:56:14.247Z,13.80
2022-10-02T21:59:14.310Z,13.82
2022-10-02T22:02:15.012Z,13.81
2022-10-02T22:05:27.329Z,13.79
2022-10-02T22:08:05.750Z,13.76
2022-10-02T22:10:43.384Z,13.73
2022-10-02T22:13:25.333Z,13.77
2022-10-02T22:16:06.761Z,13.77
2022-10-02T22:18:46.491Z,13.83
2022-10-02T22:21:49.678Z,13.82
2022-10-02T22:24:42.507Z,13.83
2022-10-02T22:27:25.009Z,13.85
2022-10-02T22:29:54.974Z,13.80
2022-10-02T22:33:13.316Z,13.82
2022-10-02T22:36:08.258Z,13.80
2022-10-02T22:38:39.622Z,13.77
2022-10-02T22:41:12.974Z,13.80
2022-10-02T22:43:50.240Z,13.85
2022-10-02T22:46:27.592Z,13.86
2022-10-02T22:49:00.886Z,13.83
2022-10-02T22:51:38.706Z,13.82
2022-10-02T22:54:21.822Z,13.86
2022-10-02T22:56:58.714Z,13.79
2022-10-02T22:59:33.036Z,13.73
2022-10-02T23:02:09.521Z,13.74
2022-10-02T23:04:44.832Z,13.73
2022-10-02T23:07:17.537Z,13.72
2022-10-02T23:09:52.822Z,13.73
2022-10-02T23:12:28.322Z,13.73
2022-10-02T23:15:07.916Z,13.73
2022-10-02T23:17:41.055Z,13.71
2022-10-02T23:20:17.150Z,13.67
2022-10-02T23:22:58.046Z,13.68
2022-10-02T23:25:34.460Z,13.67
2022-10-02T23:28:09.059Z,13.65
2022-10-02T23:30:42.665Z,13.68
2022-10-02T23:33:23.191Z,13.66
2022-10-02T23:35:56.396Z,13.64
2022-10-02T23:38:31.406Z,13.63
2022-10-02T23:41:27.446Z,13.63
2022-10-02T23:44:06.974Z,13.65
2022-10-02T23:46:44.145Z,13.71
2022-10-02T23:49:13.403Z,13.72
2022-10-02T23:51:53.440Z,13.75
2022-10-02T23:54:42.498Z,13.80
2022-10-02T23:57:26.419Z,13.83
